Time;durP1;ratioP1;P1;durP2;ratioP2;P2;SDS_P1;SDS_P2;PMS_P1;PMS_P2;Temp;Humidity;BMP_temperature;BMP_pressure;BME280_temperature;BME280_humidity;BME280_pressure;Samples;Min_cycle;Max_cycle;Signal;HPM_P1;HPM_P2
2023/05/12 00:01:43;;;;;;;11.05;8.25;;;12.50;99.90;;;;;;4972425;28;20126;-74
2023/05/12 00:04:08;;;;;;;11.73;8.73;;;12.50;99.90;;;;;;4971891;28;20054;-75
2023/05/12 00:06:34;;;;;;;13.88;9.25;;;12.50;99.90;;;;;;4976635;28;20418;-74
2023/05/12 00:09:00;;;;;;;16.23;9.45;;;12.50;99.90;;;;;;4973405;28;20424;-76
2023/05/12 00:11:25;;;;;;;13.15;9.48;;;12.50;99.90;;;;;;4973307;28;20041;-74
2023/05/12 00:13:51;;;;;;;15.07;10.32;;;12.50;99.90;;;;;;4971087;28;20031;-74
2023/05/12 00:16:17;;;;;;;13.32;10.23;;;12.40;99.90;;;;;;4972078;28;20081;-74
2023/05/12 00:18:43;;;;;;;17.17;11.27;;;12.40;99.90;;;;;;4974202;28;20077;-74
2023/05/12 00:21:09;;;;;;;15.73;10.40;;;12.40;99.90;;;;;;4970682;28;20094;-74
2023/05/12 00:23:35;;;;;;;13.85;10.77;;;12.30;99.90;;;;;;4971731;28;20019;-74
2023/05/12 00:26:00;;;;;;;17.08;10.68;;;12.40;99.90;;;;;;4973786;28;20085;-74
2023/05/12 00:28:26;;;;;;;15.77;11.00;;;12.30;99.90;;;;;;4973414;28;20483;-74
2023/05/12 00:30:51;;;;;;;18.70;12.32;;;12.30;99.90;;;;;;4969911;28;20038;-73
2023/05/12 00:33:17;;;;;;;18.80;11.63;;;12.40;99.90;;;;;;4968205;28;20030;-74
2023/05/12 00:35:44;;;;;;;17.60;12.48;;;12.40;99.90;;;;;;4971247;28;20033;-74
2023/05/12 00:38:11;;;;;;;16.23;11.55;;;12.40;99.90;;;;;;4972440;28;20022;-74
2023/05/12 00:40:36;;;;;;;16.48;12.32;;;12.40;99.90;;;;;;4971687;28;20034;-75
2023/05/12 00:43:02;;;;;;;16.50;12.63;;;12.40;99.90;;;;;;4971731;28;21713;-74
2023/05/12 00:45:30;;;;;;;15.60;11.77;;;12.40;99.90;;;;;;4972811;28;20039;-74
2023/05/12 00:47:56;;;;;;;16.75;10.82;;;12.40;99.90;;;;;;4970965;28;20023;-74
2023/05/12 00:50:22;;;;;;;15.10;11.25;;;12.30;99.90;;;;;;4969898;28;20065;-74
2023/05/12 00:52:48;;;;;;;20.42;11.35;;;12.40;99.90;;;;;;4970985;28;20446;-74
2023/05/12 00:55:14;;;;;;;16.15;10.90;;;12.30;99.90;;;;;;4972285;28;20027;-74
2023/05/12 00:57:41;;;;;;;14.90;9.63;;;12.30;99.90;;;;;;4972948;28;20047;-74
2023/05/12 01:00:07;;;;;;;13.45;9.32;;;12.30;99.90;;;;;;4968634;28;20034;-74
2023/05/12 01:02:33;;;;;;;13.05;9.05;;;12.20;99.90;;;;;;4970587;28;20038;-74
2023/05/12 01:04:59;;;;;;;12.55;8.43;;;12.20;99.90;;;;;;4971272;28;20039;-74
2023/05/12 01:07:26;;;;;;;13.52;8.52;;;12.20;99.90;;;;;;4975800;28;20031;-74
2023/05/12 01:09:55;;;;;;;12.90;7.90;;;12.10;99.90;;;;;;4975467;28;20030;-73
2023/05/12 01:12:22;;;;;;;12.13;7.07;;;12.10;99.90;;;;;;4973166;28;20387;-74
2023/05/12 01:14:49;;;;;;;12.65;7.82;;;12.10;99.90;;;;;;4956410;28;20170;-74
2023/05/12 01:17:22;;;;;;;11.90;6.55;;;12.00;99.90;;;;;;4971549;28;20058;-73
2023/05/12 01:19:57;;;;;;;9.63;6.35;;;12.00;99.90;;;;;;4970932;28;20038;-75
2023/05/12 01:22:24;;;;;;;10.63;5.97;;;12.00;99.90;;;;;;4972427;28;20031;-73
2023/05/12 01:24:52;;;;;;;11.07;6.47;;;11.90;99.90;;;;;;4971548;28;20058;-74
2023/05/12 01:27:20;;;;;;;8.32;5.63;;;11.90;99.90;;;;;;4970820;28;20030;-76
2023/05/12 01:29:46;;;;;;;12.68;6.40;;;11.90;99.90;;;;;;4972083;28;20514;-76
2023/05/12 01:32:13;;;;;;;9.65;6.03;;;11.90;99.90;;;;;;4969019;28;20390;-77
2023/05/12 01:34:41;;;;;;;9.65;5.80;;;11.90;99.90;;;;;;4972460;28;20033;-76
2023/05/12 01:37:07;;;;;;;9.15;4.88;;;11.90;99.90;;;;;;4971354;28;20390;-77
2023/05/12 01:39:33;;;;;;;11.60;5.70;;;11.90;99.90;;;;;;4969749;28;20033;-77
2023/05/12 01:41:58;;;;;;;8.73;5.15;;;11.90;99.90;;;;;;4970569;28;20061;-76
2023/05/12 01:44:24;;;;;;;8.98;5.45;;;11.90;99.90;;;;;;4971090;28;20053;-76
2023/05/12 01:46:49;;;;;;;7.45;4.88;;;11.90;99.90;;;;;;4970659;28;20050;-76
2023/05/12 01:49:19;;;;;;;7.13;4.50;;;11.90;99.90;;;;;;4971464;28;20114;-76
2023/05/12 01:51:45;;;;;;;8.90;4.93;;;11.80;99.90;;;;;;4971503;28;20030;-76
2023/05/12 01:54:13;;;;;;;8.18;4.35;;;11.80;99.90;;;;;;4966050;28;20422;-76
2023/05/12 01:56:39;;;;;;;7.90;3.88;;;11.90;99.90;;;;;;4966889;28;20085;-76
2023/05/12 01:59:05;;;;;;;8.95;4.57;;;11.80;99.90;;;;;;4951517;28;20030;-76
2023/05/12 02:01:31;;;;;;;9.20;4.90;;;11.80;99.90;;;;;;4969231;28;20027;-76
2023/05/12 02:03:58;;;;;;;7.07;4.15;;;11.80;99.90;;;;;;4970682;28;20518;-76
2023/05/12 02:06:24;;;;;;;7.55;4.18;;;11.90;99.90;;;;;;4970009;28;20158;-76
2023/05/12 02:08:50;;;;;;;6.28;3.92;;;11.80;99.90;;;;;;4972760;28;20049;-76
2023/05/12 02:11:16;;;;;;;7.28;3.67;;;11.80;99.90;;;;;;4968519;28;20030;-76
2023/05/12 02:13:45;;;;;;;5.30;2.97;;;11.80;99.90;;;;;;4969632;28;20038;-77
2023/05/12 02:16:11;;;;;;;5.22;3.25;;;11.80;99.90;;;;;;4972061;28;20030;-76
2023/05/12 02:18:37;;;;;;;4.90;3.08;;;11.80;99.90;;;;;;4967394;28;20047;-76
2023/05/12 02:21:03;;;;;;;6.50;3.20;;;11.80;99.90;;;;;;4969948;28;20031;-76
2023/05/12 02:23:29;;;;;;;6.88;3.85;;;11.80;99.90;;;;;;4969790;28;20030;-78
2023/05/12 02:25:56;;;;;;;6.05;2.83;;;11.80;99.90;;;;;;4969200;28;20035;-76
2023/05/12 02:28:21;;;;;;;6.82;3.22;;;11.80;99.90;;;;;;4967615;28;20027;-76
2023/05/12 02:30:49;;;;;;;4.15;2.88;;;11.70;99.90;;;;;;4967231;28;20041;-76
2023/05/12 02:33:15;;;;;;;5.57;2.90;;;11.70;99.90;;;;;;4971655;28;20109;-77
2023/05/12 02:35:41;;;;;;;8.88;3.08;;;11.70;99.90;;;;;;4968924;28;20023;-76
2023/05/12 02:38:06;;;;;;;4.78;2.92;;;11.70;99.90;;;;;;4969931;28;20046;-76
2023/05/12 02:40:32;;;;;;;8.40;3.78;;;11.70;99.90;;;;;;4968622;28;20455;-76
2023/05/12 02:42:57;;;;;;;7.85;3.60;;;11.70;99.90;;;;;;4951478;28;20117;-76
2023/05/12 02:45:23;;;;;;;7.25;3.60;;;11.70;99.90;;;;;;4971399;28;20078;-76
2023/05/12 02:47:48;;;;;;;8.40;3.70;;;11.80;99.90;;;;;;4970099;28;20521;-76
2023/05/12 02:50:15;;;;;;;7.45;3.90;;;11.70;99.90;;;;;;4967960;28;20046;-76
2023/05/12 02:52:40;;;;;;;9.27;4.82;;;11.80;99.90;;;;;;4967901;28;20027;-76
2023/05/12 02:55:06;;;;;;;10.43;5.00;;;11.80;99.90;;;;;;4969922;28;20387;-76
2023/05/12 02:57:32;;;;;;;14.82;5.43;;;11.70;99.90;;;;;;4966332;28;20047;-76
2023/05/12 03:00:05;;;;;;;10.50;5.38;;;11.80;99.90;;;;;;4968925;28;20037;-76
2023/05/12 03:02:38;;;;;;;15.38;5.72;;;11.80;99.90;;;;;;4969092;28;20438;-76
2023/05/12 03:05:04;;;;;;;;;;;11.80;99.90;;;;;;4966260;28;20081;-76
2023/05/12 03:07:29;;;;;;;15.60;6.80;;;11.80;99.90;;;;;;4950652;28;19950;-76
2023/05/12 03:09:56;;;;;;;18.58;8.30;;;11.80;99.90;;;;;;4968545;28;20023;-76
2023/05/12 03:12:21;;;;;;;21.23;8.48;;;11.80;99.90;;;;;;4968396;28;20058;-76
2023/05/12 03:14:47;;;;;;;18.80;8.88;;;11.80;99.90;;;;;;4969631;28;20431;-76
2023/05/12 03:17:13;;;;;;;18.92;8.95;;;11.80;99.90;;;;;;4969997;28;20063;-76
2023/05/12 03:19:38;;;;;;;19.15;9.00;;;11.80;99.90;;;;;;4967903;28;20074;-76
2023/05/12 03:22:06;;;;;;;19.38;8.88;;;11.80;99.90;;;;;;4969725;28;20031;-76
2023/05/12 03:24:32;;;;;;;29.40;11.15;;;11.80;99.90;;;;;;4974169;28;20058;-76
2023/05/12 03:26:57;;;;;;;26.77;11.35;;;11.80;99.90;;;;;;4957829;28;20054;-76
2023/05/12 03:29:23;;;;;;;25.65;11.40;;;11.80;99.90;;;;;;4970956;28;20023;-75
2023/05/12 03:31:49;;;;;;;29.88;12.25;;;11.80;99.90;;;;;;4973617;28;20031;-76
2023/05/12 03:34:14;;;;;;;33.20;13.23;;;11.80;99.90;;;;;;4967707;28;20432;-76
2023/05/12 03:36:40;;;;;;;27.15;11.98;;;11.90;99.90;;;;;;4970894;28;20034;-76
2023/05/12 03:39:08;;;;;;;30.23;13.70;;;11.90;99.90;;;;;;4971913;28;20014;-76
2023/05/12 03:41:34;;;;;;;30.92;14.98;;;11.90;99.90;;;;;;4973250;28;20089;-76
2023/05/12 03:43:59;;;;;;;34.85;13.70;;;11.90;99.90;;;;;;4973937;28;20025;-76
2023/05/12 03:46:25;;;;;;;32.35;15.38;;;11.90;99.90;;;;;;4974733;28;20039;-76
2023/05/12 03:48:51;;;;;;;38.40;15.60;;;11.90;99.90;;;;;;4972811;28;20471;-76
2023/05/12 03:51:17;;;;;;;35.25;15.30;;;11.80;99.90;;;;;;4971915;28;20679;-77
2023/05/12 03:53:45;;;;;;;37.83;16.15;;;11.90;99.90;;;;;;4972476;28;20117;-76
2023/05/12 03:56:10;;;;;;;38.28;15.48;;;11.90;99.90;;;;;;4967176;28;20026;-76
2023/05/12 03:58:36;;;;;;;38.00;16.00;;;11.90;99.90;;;;;;4967333;28;20051;-77
2023/05/12 04:01:02;;;;;;;39.97;16.88;;;11.90;99.90;;;;;;4969471;28;20023;-76
2023/05/12 04:03:28;;;;;;;38.80;17.05;;;11.90;99.90;;;;;;4971650;28;20031;-76
2023/05/12 04:05:58;;;;;;;37.42;17.48;;;11.90;99.90;;;;;;4973823;28;20490;-75
2023/05/12 04:08:24;;;;;;;45.00;19.30;;;12.00;99.90;;;;;;4969710;28;20381;-76
2023/05/12 04:10:57;;;;;;;47.58;19.08;;;12.00;99.90;;;;;;4972835;28;20398;-77
2023/05/12 04:13:22;;;;;;;44.40;19.88;;;11.90;99.90;;;;;;4972451;28;20026;-75
2023/05/12 04:15:48;;;;;;;45.85;20.58;;;12.00;99.90;;;;;;4971544;28;20026;-76
2023/05/12 04:18:14;;;;;;;51.80;20.25;;;12.00;99.90;;;;;;4972411;28;20027;-76
2023/05/12 04:20:39;;;;;;;54.05;22.63;;;12.00;99.90;;;;;;4974813;28;20386;-76
2023/05/12 04:23:05;;;;;;;46.00;20.90;;;12.00;99.90;;;;;;4972167;28;20106;-76
2023/05/12 04:25:31;;;;;;;49.95;22.17;;;12.10;99.90;;;;;;4959346;28;20495;-76
2023/05/12 04:27:56;;;;;;;51.75;23.35;;;12.10;99.90;;;;;;4969290;28;20054;-76
2023/05/12 04:30:22;;;;;;;56.10;23.60;;;12.10;99.90;;;;;;4973208;28;20030;-76
2023/05/12 04:32:48;;;;;;;49.58;22.52;;;12.10;99.90;;;;;;4970278;28;20030;-76
2023/05/12 04:35:14;;;;;;;60.20;26.35;;;12.20;99.90;;;;;;4971648;28;20051;-76
2023/05/12 04:37:40;;;;;;;44.90;19.55;;;12.20;99.90;;;;;;4967871;28;20023;-76
2023/05/12 04:40:07;;;;;;;56.03;24.77;;;12.20;99.90;;;;;;4967076;28;20031;-75
2023/05/12 04:42:34;;;;;;;56.50;25.63;;;12.20;99.90;;;;;;4971287;28;20077;-77
2023/05/12 04:44:59;;;;;;;58.42;24.73;;;12.30;99.90;;;;;;4972114;28;20118;-76
2023/05/12 04:47:25;;;;;;;56.38;25.40;;;12.30;99.90;;;;;;4965553;28;20134;-76
2023/05/12 04:49:50;;;;;;;52.50;24.92;;;12.30;99.90;;;;;;4970696;28;20030;-78
2023/05/12 04:52:16;;;;;;;55.85;24.67;;;12.30;99.90;;;;;;4971635;28;20043;-76
2023/05/12 04:54:41;;;;;;;59.00;26.73;;;12.40;99.90;;;;;;4969657;28;20491;-76
2023/05/12 04:57:07;;;;;;;56.03;25.60;;;12.40;99.90;;;;;;4970261;28;20045;-76
2023/05/12 04:59:33;;;;;;;58.85;26.67;;;12.40;99.90;;;;;;4967289;28;20031;-76
2023/05/12 05:01:58;;;;;;;55.75;26.38;;;12.40;99.90;;;;;;4969073;28;20414;-76
2023/05/12 05:04:24;;;;;;;63.20;26.85;;;12.50;99.90;;;;;;4972622;28;20027;-76
2023/05/12 05:06:50;;;;;;;55.28;24.85;;;12.50;99.90;;;;;;4974016;28;20423;-76
2023/05/12 05:09:15;;;;;;;57.28;27.35;;;12.50;99.90;;;;;;4973081;28;20399;-77
2023/05/12 05:11:41;;;;;;;59.83;27.60;;;12.60;99.90;;;;;;4975933;28;20054;-77
2023/05/12 05:14:06;;;;;;;60.78;28.75;;;12.60;99.90;;;;;;4973203;28;20023;-77
2023/05/12 05:16:32;;;;;;;54.13;27.10;;;12.60;99.90;;;;;;4989700;28;20037;-76
2023/05/12 05:18:57;;;;;;;59.53;28.27;;;12.70;99.90;;;;;;4973469;28;20031;-76
2023/05/12 05:21:23;;;;;;;51.58;26.45;;;12.80;99.90;;;;;;4970745;28;20407;-76
2023/05/12 05:23:48;;;;;;;57.22;28.70;;;12.80;99.90;;;;;;4977111;28;20034;-77
2023/05/12 05:26:14;;;;;;;60.03;29.77;;;12.90;99.90;;;;;;4972395;28;20053;-76
2023/05/12 05:28:39;;;;;;;60.78;30.52;;;12.90;99.90;;;;;;4974151;28;20034;-76
2023/05/12 05:31:05;;;;;;;65.07;30.92;;;13.00;99.90;;;;;;4966654;28;20022;-77
2023/05/12 05:33:31;;;;;;;67.00;32.55;;;13.00;99.90;;;;;;4968897;28;20019;-76
2023/05/12 05:35:57;;;;;;;62.60;30.73;;;13.00;99.90;;;;;;4973388;28;20114;-76
2023/05/12 05:38:22;;;;;;;69.53;33.28;;;13.10;99.90;;;;;;4973700;28;20026;-76
2023/05/12 05:40:48;;;;;;;61.65;29.77;;;13.10;99.90;;;;;;4972735;28;20035;-77
2023/05/12 05:43:14;;;;;;;55.50;28.67;;;13.20;99.90;;;;;;4971386;28;20034;-76
2023/05/12 05:45:39;;;;;;;63.92;31.50;;;13.20;99.90;;;;;;4964462;28;20447;-77
2023/05/12 05:48:05;;;;;;;59.40;31.15;;;13.30;99.90;;;;;;4972511;28;20479;-76
2023/05/12 05:50:31;;;;;;;64.22;31.88;;;13.30;99.90;;;;;;4972869;28;20081;-76
2023/05/12 05:52:56;;;;;;;59.13;31.55;;;13.40;99.90;;;;;;4966171;28;20027;-77
2023/05/12 05:55:22;;;;;;;66.22;31.58;;;13.50;99.90;;;;;;4961849;28;20426;-76
2023/05/12 05:57:48;;;;;;;66.63;32.33;;;13.50;99.90;;;;;;4967857;28;20047;-76
2023/05/12 06:00:14;;;;;;;55.50;29.63;;;13.60;99.90;;;;;;4963867;28;20042;-76
2023/05/12 06:02:40;;;;;;;59.63;31.42;;;13.60;99.90;;;;;;4968192;28;20093;-76
2023/05/12 06:05:07;;;;;;;56.47;31.10;;;13.70;99.90;;;;;;4965743;28;20042;-76
2023/05/12 06:07:33;;;;;;;58.22;31.50;;;13.80;99.90;;;;;;4950124;28;20050;-77
2023/05/12 06:09:58;;;;;;;57.53;29.67;;;13.90;99.90;;;;;;4967563;28;20162;-76
2023/05/12 06:12:24;;;;;;;58.72;29.77;;;13.90;99.90;;;;;;4971265;28;21045;-77
2023/05/12 06:14:52;;;;;;;56.20;29.83;;;14.00;99.90;;;;;;4963319;28;20705;-78
2023/05/12 06:17:18;;;;;;;58.05;30.63;;;14.00;99.90;;;;;;4969225;28;20101;-77
2023/05/12 06:19:46;;;;;;;53.38;28.00;;;14.10;99.90;;;;;;4970228;28;20158;-76
2023/05/12 06:22:13;;;;;;;50.53;30.08;;;14.20;99.90;;;;;;4968301;28;20027;-75
2023/05/12 06:24:39;;;;;;;53.03;29.15;;;14.20;99.90;;;;;;4953574;28;20402;-75
2023/05/12 06:27:05;;;;;;;51.72;29.20;;;14.30;99.90;;;;;;4972034;28;20101;-75
2023/05/12 06:29:31;;;;;;;53.97;30.15;;;14.30;99.90;;;;;;4967779;28;20039;-76
2023/05/12 06:31:56;;;;;;;53.42;30.00;;;14.30;99.90;;;;;;4973117;28;20033;-76
2023/05/12 06:34:22;;;;;;;45.33;26.50;;;14.30;99.90;;;;;;4968013;28;20027;-75
2023/05/12 06:36:48;;;;;;;51.80;28.83;;;14.30;99.90;;;;;;4973446;28;20466;-75
2023/05/12 06:39:13;;;;;;;45.53;27.02;;;14.40;99.90;;;;;;4969479;28;20415;-74
2023/05/12 06:41:39;;;;;;;50.83;28.63;;;14.30;99.90;;;;;;4972873;28;20505;-76
2023/05/12 06:44:05;;;;;;;46.50;28.00;;;14.40;99.90;;;;;;4953393;28;20035;-75
2023/05/12 06:46:31;;;;;;;41.67;26.10;;;14.50;99.90;;;;;;4953394;28;20035;-76
2023/05/12 06:48:57;;;;;;;39.30;23.85;;;14.60;99.90;;;;;;4969407;28;20034;-77
2023/05/12 06:51:22;;;;;;;45.20;26.83;;;14.60;99.90;;;;;;4967482;28;20031;-78
2023/05/12 06:53:48;;;;;;;42.83;26.40;;;14.70;99.90;;;;;;4966725;28;20387;-76
2023/05/12 06:56:15;;;;;;;35.20;23.58;;;14.80;99.90;;;;;;4967819;28;20042;-77
2023/05/12 06:58:42;;;;;;;41.42;25.67;;;14.80;99.90;;;;;;4968098;28;20046;-77
2023/05/12 07:01:07;;;;;;;39.40;24.75;;;14.90;99.90;;;;;;4962533;28;20026;-76
2023/05/12 07:03:33;;;;;;;36.50;24.85;;;14.90;99.90;;;;;;4951839;28;20422;-77
2023/05/12 07:05:59;;;;;;;38.80;25.17;;;14.90;99.90;;;;;;4972829;28;20042;-77
2023/05/12 07:08:24;;;;;;;42.13;25.58;;;15.00;99.90;;;;;;4971999;28;20036;-77
2023/05/12 07:10:50;;;;;;;36.53;24.60;;;15.10;99.90;;;;;;4971799;28;20483;-76
2023/05/12 07:13:16;;;;;;;35.15;22.52;;;15.20;99.90;;;;;;4970361;28;20058;-78
2023/05/12 07:15:41;;;;;;;30.70;20.45;;;15.20;99.90;;;;;;4966087;28;20031;-77
2023/05/12 07:18:07;;;;;;;29.30;20.33;;;15.30;99.90;;;;;;4972638;28;20517;-76
2023/05/12 07:20:33;;;;;;;28.50;18.45;;;15.40;99.90;;;;;;4975837;28;20037;-77
2023/05/12 07:22:58;;;;;;;28.17;18.70;;;15.50;99.90;;;;;;4967326;28;20031;-78
2023/05/12 07:25:24;;;;;;;24.13;17.88;;;15.60;99.90;;;;;;4971987;28;20074;-76
2023/05/12 07:27:49;;;;;;;28.10;17.60;;;15.80;99.90;;;;;;4947870;28;20131;-77
2023/05/12 07:30:15;;;;;;;22.70;16.77;;;15.80;99.90;;;;;;4972772;28;20038;-77
2023/05/12 07:32:41;;;;;;;20.65;15.20;;;16.00;99.90;;;;;;4972877;28;20034;-77
2023/05/12 07:35:08;;;;;;;17.75;13.90;;;16.20;99.90;;;;;;4971597;28;20050;-77
2023/05/12 07:37:34;;;;;;;16.73;13.10;;;16.40;99.90;;;;;;4971667;28;20038;-77
2023/05/12 07:39:59;;;;;;;15.27;11.63;;;16.50;99.90;;;;;;4973344;28;20074;-77
2023/05/12 07:42:28;;;;;;;15.95;11.68;;;16.60;99.90;;;;;;4971834;28;20482;-77
2023/05/12 07:44:54;;;;;;;15.02;11.68;;;16.60;99.90;;;;;;4961329;28;20555;-76
2023/05/12 07:47:19;;;;;;;15.68;11.25;;;16.60;99.90;;;;;;4972803;28;20074;-76
2023/05/12 07:49:45;;;;;;;12.90;9.25;;;16.60;99.90;;;;;;4969677;28;20027;-77
2023/05/12 07:52:10;;;;;;;10.43;7.88;;;16.70;99.90;;;;;;4964104;28;20461;-76
2023/05/12 07:54:36;;;;;;;10.93;8.45;;;16.70;99.90;;;;;;4971996;28;20057;-75
2023/05/12 07:57:02;;;;;;;14.75;9.13;;;16.80;99.90;;;;;;4972499;28;20042;-76
2023/05/12 07:59:27;;;;;;;12.70;8.88;;;16.90;99.90;;;;;;4965574;28;20074;-77
2023/05/12 08:01:53;;;;;;;10.15;7.80;;;16.90;99.90;;;;;;4969369;28;20501;-77
2023/05/12 08:04:19;;;;;;;10.00;8.02;;;17.00;99.90;;;;;;4973629;28;20034;-77
2023/05/12 08:06:44;;;;;;;9.32;7.03;;;17.10;99.90;;;;;;4966343;28;20039;-76
2023/05/12 08:09:10;;;;;;;8.77;7.38;;;17.10;99.90;;;;;;4972245;28;20027;-76
2023/05/12 08:11:35;;;;;;;9.68;7.72;;;17.10;99.90;;;;;;4977496;28;20213;-76
2023/05/12 08:14:01;;;;;;;12.27;7.05;;;17.30;99.90;;;;;;4970930;28;20380;-77
2023/05/12 08:16:26;;;;;;;7.85;6.30;;;17.40;99.90;;;;;;4971007;28;20078;-76
2023/05/12 08:18:52;;;;;;;8.68;6.47;;;17.40;99.90;;;;;;4974140;28;20498;-77
2023/05/12 08:21:17;;;;;;;9.77;7.55;;;17.40;99.90;;;;;;4970356;28;20058;-77
2023/05/12 08:23:43;;;;;;;9.00;7.20;;;17.40;99.90;;;;;;4975450;28;20062;-77
2023/05/12 08:26:09;;;;;;;7.32;6.35;;;17.30;99.90;;;;;;4973379;28;20035;-77
2023/05/12 08:28:35;;;;;;;7.45;5.70;;;17.30;99.90;;;;;;4975419;28;20475;-77
2023/05/12 08:31:02;;;;;;;11.75;5.72;;;17.20;99.90;;;;;;4972266;28;20023;-77
2023/05/12 08:33:27;;;;;;;6.55;4.35;;;17.20;99.90;;;;;;4969769;28;20503;-76
2023/05/12 08:35:53;;;;;;;7.15;4.60;;;17.30;99.90;;;;;;4963087;28;20031;-77
2023/05/12 08:38:19;;;;;;;4.47;3.65;;;17.30;99.90;;;;;;4974048;28;20054;-76
2023/05/12 08:41:24;;;;;;;4.80;4.00;;;17.40;99.90;;;;;;4972457;28;20085;-77
2023/05/12 08:43:51;;;;;;;5.05;4.15;;;17.60;99.90;;;;;;4969952;28;20423;-77
2023/05/12 08:46:16;;;;;;;5.53;4.03;;;17.70;99.90;;;;;;4960013;28;20039;-76
2023/05/12 08:48:46;;;;;;;5.93;3.95;;;17.90;99.90;;;;;;4969444;28;20027;-76
2023/05/12 08:51:12;;;;;;;5.57;4.40;;;18.00;99.90;;;;;;4974577;28;20082;-75
2023/05/12 08:53:40;;;;;;;6.53;5.28;;;18.10;99.90;;;;;;4957470;28;20027;-76
2023/05/12 08:56:08;;;;;;;6.15;5.05;;;18.30;99.90;;;;;;4952509;28;20297;-75
2023/05/12 08:58:35;;;;;;;7.05;4.07;;;18.30;99.90;;;;;;4972186;28;20217;-75
2023/05/12 09:01:04;;;;;;;9.15;5.55;;;18.30;99.90;;;;;;4973037;28;20073;-76
2023/05/12 09:03:30;;;;;;;4.85;4.25;;;18.40;99.90;;;;;;4971928;28;20031;-75
2023/05/12 09:05:57;;;;;;;5.70;3.70;;;18.60;99.90;;;;;;4973496;28;20045;-76
2023/05/12 09:08:25;;;;;;;17.25;4.47;;;18.80;99.90;;;;;;4974358;28;20479;-76
2023/05/12 09:10:53;;;;;;;6.05;3.53;;;18.90;99.90;;;;;;4974581;28;20523;-77
2023/05/12 09:13:32;;;;;;;5.72;4.07;;;19.00;99.90;;;;;;4973785;28;20022;-77
2023/05/12 09:16:00;;;;;;;4.63;3.70;;;19.10;99.90;;;;;;4974366;28;20516;-77
2023/05/12 09:19:02;;;;;;;6.10;3.60;;;19.20;99.90;;;;;;4973518;28;20506;-76
2023/05/12 09:21:28;;;;;;;9.88;2.95;;;19.20;99.90;;;;;;4931803;28;20050;-77
2023/05/12 09:23:58;;;;;;;3.72;2.72;;;19.00;99.90;;;;;;4974495;28;20395;-77
2023/05/12 09:26:27;;;;;;;3.35;2.17;;;18.80;99.90;;;;;;4973123;28;20172;-77
2023/05/12 09:29:02;;;;;;;30.45;2.90;;;18.70;99.90;;;;;;4974771;28;20454;-76
2023/05/12 09:31:27;;;;;;;3.92;2.10;;;18.70;99.90;;;;;;4974264;28;20034;-77
2023/05/12 09:33:53;;;;;;;1.80;1.23;;;18.60;99.90;;;;;;4956779;28;20023;-76
2023/05/12 09:36:23;;;;;;;14.00;1.95;;;18.60;99.90;;;;;;4973476;28;20463;-76
2023/05/12 09:39:06;;;;;;;5.18;1.38;;;18.60;99.90;;;;;;4973673;28;20498;-77
2023/05/12 09:41:36;;;;;;;1.98;0.80;;;18.60;99.90;;;;;;4974373;28;20026;-78
2023/05/12 09:44:02;;;;;;;3.25;1.02;;;18.70;99.90;;;;;;4974441;28;20023;-76
2023/05/12 09:46:28;;;;;;;3.45;1.20;;;18.70;99.90;;;;;;4971580;28;20034;-76
2023/05/12 09:48:57;;;;;;;2.90;0.93;;;18.70;99.90;;;;;;4971674;28;20447;-77
2023/05/12 09:51:23;;;;;;;3.53;1.05;;;18.60;99.90;;;;;;4972720;28;20081;-77
2023/05/12 09:53:49;;;;;;;4.57;1.20;;;18.70;99.90;;;;;;4973387;28;20019;-77
2023/05/12 09:56:16;;;;;;;2.40;1.10;;;18.70;99.90;;;;;;4971300;28;20023;-76
2023/05/12 09:58:44;;;;;;;3.03;0.93;;;18.80;99.90;;;;;;4971800;28;20483;-77
2023/05/12 10:01:12;;;;;;;1.90;1.00;;;18.90;99.90;;;;;;4947282;28;20165;-76
2023/05/12 10:03:41;;;;;;;1.83;1.10;;;19.10;99.90;;;;;;4960564;28;20031;-77
2023/05/12 10:06:13;;;;;;;2.70;1.27;;;19.20;99.90;;;;;;4964687;28;20049;-77
2023/05/12 10:08:55;;;;;;;3.00;1.30;;;19.40;99.90;;;;;;4970925;28;20031;-77
2023/05/12 10:11:21;;;;;;;4.28;1.38;;;19.40;99.90;;;;;;4983454;28;20081;-77
2023/05/12 10:13:47;;;;;;;2.72;1.02;;;19.60;99.90;;;;;;4971585;28;20037;-76
2023/05/12 10:16:14;;;;;;;3.90;1.13;;;19.70;99.90;;;;;;4970160;28;20049;-77
2023/05/12 10:18:43;;;;;;;2.00;0.77;;;19.90;99.90;;;;;;4959641;28;20030;-75
2023/05/12 10:21:10;;;;;;;1.73;1.10;;;19.90;99.90;;;;;;4971941;28;20023;-77
2023/05/12 10:23:40;;;;;;;2.28;1.05;;;19.90;99.90;;;;;;4973401;28;20038;-77
2023/05/12 10:26:06;;;;;;;2.17;0.85;;;19.90;99.90;;;;;;4972854;28;20047;-77
2023/05/12 10:28:31;;;;;;;9.18;1.40;;;19.90;99.90;;;;;;4966143;28;20025;-77
2023/05/12 10:30:58;;;;;;;2.13;1.00;;;19.70;99.90;;;;;;4970521;28;20035;-77
2023/05/12 10:33:24;;;;;;;2.70;1.25;;;19.70;99.90;;;;;;4971958;28;20019;-77
2023/05/12 10:35:51;;;;;;;2.28;1.13;;;19.90;99.90;;;;;;4955535;28;20057;-77
2023/05/12 10:38:18;;;;;;;2.60;0.90;;;20.00;99.90;;;;;;4972609;28;20027;-77
2023/05/12 10:40:54;;;;;;;2.00;1.17;;;20.20;99.90;;;;;;4972102;28;20105;-76
2023/05/12 10:43:22;;;;;;;2.05;1.10;;;20.20;99.90;;;;;;4970307;28;20033;-77
2023/05/12 10:46:08;;;;;;;1.40;0.90;;;20.20;99.90;;;;;;4970682;28;20493;-74
2023/05/12 10:48:35;;;;;;;2.53;0.98;;;20.20;99.90;;;;;;4968187;28;20031;-76
2023/05/12 10:51:10;;;;;;;2.80;0.88;;;20.20;99.90;;;;;;4971778;28;20558;-76
2023/05/12 10:53:39;;;;;;;3.13;0.95;;;20.20;99.90;;;;;;4971200;28;20035;-76
2023/05/12 10:56:05;;;;;;;3.03;1.15;;;20.20;99.90;;;;;;4968621;28;20360;-76
2023/05/12 10:58:31;;;;;;;3.53;0.90;;;20.30;99.90;;;;;;4972004;28;20047;-76
2023/05/12 11:01:05;;;;;;;1.98;1.13;;;20.50;99.90;;;;;;4972513;28;20101;-77
2023/05/12 11:03:32;;;;;;;2.25;0.80;;;20.60;99.90;;;;;;4971412;28;20038;-76
2023/05/12 11:06:03;;;;;;;2.95;1.08;;;20.70;99.90;;;;;;4972666;28;20034;-77
2023/05/12 11:08:33;;;;;;;3.07;0.77;;;20.70;99.90;;;;;;4972382;28;20479;-76
2023/05/12 11:11:00;;;;;;;4.28;1.13;;;20.70;99.90;;;;;;4970148;28;20023;-77
2023/05/12 11:13:27;;;;;;;2.83;0.98;;;20.60;99.90;;;;;;4965533;28;20032;-77
2023/05/12 11:15:55;;;;;;;6.05;1.00;;;20.50;99.90;;;;;;4961152;28;20030;-76
2023/05/12 11:18:21;;;;;;;2.20;1.08;;;20.50;99.90;;;;;;4971830;28;20491;-76
2023/05/12 11:20:48;;;;;;;3.13;1.05;;;20.60;99.90;;;;;;4970684;28;20074;-76
2023/05/12 11:23:28;;;;;;;1.45;0.70;;;20.70;99.90;;;;;;4971534;28;20050;-76
2023/05/12 11:25:55;;;;;;;2.78;0.93;;;20.90;99.90;;;;;;4971935;28;20031;-76
2023/05/12 11:28:20;;;;;;;4.60;1.00;;;20.80;99.90;;;;;;4953913;28;20382;-77
2023/05/12 11:30:53;;;;;;;2.15;0.98;;;20.70;99.00;;;;;;4972237;28;20113;-76
2023/05/12 11:33:20;;;;;;;2.50;1.00;;;20.70;99.00;;;;;;4971072;28;20495;-77
2023/05/12 11:35:46;;;;;;;2.90;0.82;;;20.80;99.00;;;;;;4961395;28;20040;-77
2023/05/12 11:38:16;;;;;;;2.10;1.10;;;20.90;98.40;;;;;;4966264;28;20026;-76
2023/05/12 11:40:42;;;;;;;5.53;0.70;;;20.90;97.30;;;;;;4972157;28;20034;-76
2023/05/12 11:43:13;;;;;;;3.78;1.17;;;20.90;98.30;;;;;;4970370;28;20114;-77
2023/05/12 11:45:39;;;;;;;1.92;0.90;;;21.00;97.40;;;;;;4972915;28;20041;-77
2023/05/12 11:48:12;;;;;;;3.78;1.10;;;21.00;98.00;;;;;;4968101;28;20030;-75
2023/05/12 11:50:40;;;;;;;2.90;0.80;;;21.10;98.60;;;;;;4973421;28;20129;-76
2023/05/12 11:53:17;;;;;;;3.40;1.00;;;21.30;98.40;;;;;;4990330;28;20019;-76
2023/05/12 11:55:54;;;;;;;2.17;1.13;;;21.30;97.30;;;;;;4975919;28;20027;-76
2023/05/12 11:58:25;;;;;;;2.55;0.88;;;21.50;97.00;;;;;;4977996;28;20070;-77
2023/05/12 12:00:52;;;;;;;2.90;0.80;;;21.50;97.00;;;;;;4957990;28;20393;-76
2023/05/12 12:03:18;;;;;;;3.20;1.17;;;21.60;96.90;;;;;;4975453;28;20037;-76
2023/05/12 12:05:57;;;;;;;2.00;0.80;;;21.70;97.00;;;;;;4974998;28;20035;-76
2023/05/12 12:08:23;;;;;;;3.88;0.95;;;21.80;95.90;;;;;;4955575;28;20030;-78
2023/05/12 12:10:48;;;;;;;2.05;0.90;;;21.80;95.60;;;;;;4965494;28;20467;-77
2023/05/12 12:13:21;;;;;;;1.92;0.75;;;21.60;95.20;;;;;;4956287;28;20031;-77
2023/05/12 12:15:48;;;;;;;2.13;1.08;;;21.60;95.30;;;;;;4968408;28;20085;-75
2023/05/12 12:18:15;;;;;;;1.92;1.10;;;21.60;95.50;;;;;;4965052;28;20053;-77
2023/05/12 12:20:44;;;;;;;2.15;0.82;;;21.60;95.10;;;;;;4965363;28;20038;-77
2023/05/12 12:23:10;;;;;;;2.28;0.73;;;21.60;95.00;;;;;;4967322;28;20038;-76
2023/05/12 12:25:36;;;;;;;4.70;1.20;;;21.60;94.80;;;;;;4975906;28;20043;-77
2023/05/12 12:28:01;;;;;;;4.70;1.13;;;21.70;95.00;;;;;;4975916;28;20057;-77
2023/05/12 12:30:27;;;;;;;5.50;1.02;;;22.00;96.10;;;;;;4974791;28;20105;-77
2023/05/12 12:32:52;;;;;;;2.00;0.90;;;22.30;95.40;;;;;;4975484;28;20093;-77
2023/05/12 12:35:18;;;;;;;1.48;0.82;;;22.60;94.60;;;;;;4969086;28;20381;-77
2023/05/12 12:37:50;;;;;;;3.55;1.08;;;22.60;92.20;;;;;;4962674;28;20026;-77